createdAt,value
2018-10-03T00:00:52.566Z,1012.55
2018-10-03T00:01:52.578Z,1012.52
2018-10-03T00:02:52.594Z,1012.56
2018-10-03T00:03:52.603Z,1012.59
2018-10-03T00:04:52.621Z,1012.61
2018-10-03T00:05:52.632Z,1012.61
2018-10-03T00:06:52.642Z,1012.61
2018-10-03T00:07:52.657Z,1012.64
2018-10-03T00:08:52.673Z,1012.65
2018-10-03T00:09:52.685Z,1012.64
2018-10-03T00:10:52.700Z,1012.67
2018-10-03T00:11:52.712Z,1012.64
2018-10-03T00:13:52.839Z,1012.66
2018-10-03T00:15:52.810Z,1012.67
2018-10-03T00:16:52.784Z,1012.68
2018-10-03T00:17:52.791Z,1012.66
2018-10-03T00:18:52.802Z,1012.66
2018-10-03T00:19:52.817Z,1012.64
2018-10-03T00:20:52.831Z,1012.62
2018-10-03T00:21:52.841Z,1012.66
2018-10-03T00:22:52.857Z,1012.66
2018-10-03T00:23:52.869Z,1012.68
2018-10-03T00:24:52.880Z,1012.70
2018-10-03T00:25:52.899Z,1012.66
2018-10-03T00:26:52.908Z,1012.71
2018-10-03T00:27:52.924Z,1012.72
2018-10-03T00:28:52.934Z,1012.72
2018-10-03T00:29:52.944Z,1012.72
2018-10-03T00:30:52.959Z,1012.71
2018-10-03T00:31:52.974Z,1012.72
2018-10-03T00:32:52.986Z,1012.75
2018-10-03T00:33:53.000Z,1012.75
2018-10-03T00:34:53.028Z,1012.75
2018-10-03T00:35:53.027Z,1012.75
2018-10-03T00:36:53.037Z,1012.72
2018-10-03T00:37:53.049Z,1012.67
2018-10-03T00:38:53.064Z,1012.67
2018-10-03T00:39:53.088Z,1012.64
2018-10-03T00:40:53.090Z,1012.69
2018-10-03T00:41:53.103Z,1012.69
2018-10-03T00:42:53.117Z,1012.62
2018-10-03T00:43:53.131Z,1012.66
2018-10-03T00:44:53.142Z,1012.61
2018-10-03T00:45:53.176Z,1012.62
2018-10-03T00:48:53.802Z,1012.70
2018-10-03T00:49:53.210Z,1012.72
2018-10-03T00:50:53.228Z,1012.76
2018-10-03T00:51:53.238Z,1012.73
2018-10-03T00:52:53.247Z,1012.71
2018-10-03T00:53:53.261Z,1012.73
2018-10-03T00:54:53.278Z,1012.72
2018-10-03T00:55:53.291Z,1012.70
2018-10-03T00:56:53.298Z,1012.71
2018-10-03T00:57:53.314Z,1012.67
2018-10-03T00:58:53.329Z,1012.65
2018-10-03T00:59:53.347Z,1012.67
2018-10-03T01:00:53.374Z,1012.70
2018-10-03T01:01:53.369Z,1012.70
2018-10-03T01:02:53.386Z,1012.73
2018-10-03T01:03:53.395Z,1012.72
2018-10-03T01:04:53.413Z,1012.74
2018-10-03T01:05:53.421Z,1012.74
2018-10-03T01:06:53.436Z,1012.79
2018-10-03T01:07:53.451Z,1012.80
2018-10-03T01:08:53.467Z,1012.81
2018-10-03T01:09:53.478Z,1012.77
2018-10-03T01:10:53.485Z,1012.80
2018-10-03T01:11:53.500Z,1012.83
2018-10-03T01:12:53.514Z,1012.86
2018-10-03T01:13:53.526Z,1012.84
2018-10-03T01:14:53.542Z,1012.89
2018-10-03T01:15:53.555Z,1012.87
2018-10-03T01:16:53.571Z,1012.93
2018-10-03T01:17:53.579Z,1012.89
2018-10-03T01:18:53.745Z,1012.87
2018-10-03T01:19:53.805Z,1012.97
2018-10-03T01:21:53.791Z,1012.95
2018-10-03T01:22:54.077Z,1012.92
2018-10-03T01:23:53.659Z,1012.97
2018-10-03T01:24:53.673Z,1012.91
2018-10-03T01:25:53.686Z,1012.93
2018-10-03T01:26:53.701Z,1012.91
2018-10-03T01:27:53.716Z,1012.92
2018-10-03T01:28:53.731Z,1012.92
2018-10-03T01:29:53.741Z,1012.92
2018-10-03T01:30:53.856Z,1012.96
2018-10-03T01:31:53.772Z,1012.94
2018-10-03T01:32:53.779Z,1012.93
2018-10-03T01:33:53.794Z,1012.98
2018-10-03T01:34:53.805Z,1013.01
2018-10-03T01:35:53.818Z,1013.03
2018-10-03T01:36:53.831Z,1013.03
2018-10-03T01:37:53.847Z,1013.05
2018-10-03T01:38:53.860Z,1013.03
2018-10-03T01:39:53.873Z,1013.00
2018-10-03T01:40:53.885Z,1013.05
2018-10-03T01:41:53.936Z,1013.03
2018-10-03T01:42:53.914Z,1013.05
2018-10-03T01:43:53.927Z,1013.07
2018-10-03T01:44:53.939Z,1013.05
2018-10-03T01:45:53.955Z,1013.08
2018-10-03T01:46:53.963Z,1013.09
2018-10-03T01:47:53.978Z,1013.08
2018-10-03T01:48:53.991Z,1013.05
2018-10-03T01:49:54.005Z,1013.04
2018-10-03T01:50:54.022Z,1013.08
2018-10-03T01:51:54.030Z,1013.12
2018-10-03T01:52:54.149Z,1013.10
2018-10-03T01:53:54.123Z,1013.12
2018-10-03T01:55:54.353Z,1013.13
2018-10-03T01:56:54.102Z,1013.13
2018-10-03T01:57:54.114Z,1013.10
2018-10-03T01:58:54.129Z,1013.11
2018-10-03T01:59:54.138Z,1013.17
2018-10-03T02:00:54.153Z,1013.23
2018-10-03T02:01:54.164Z,1013.24
2018-10-03T02:02:54.182Z,1013.23
2018-10-03T02:03:54.201Z,1013.26
2018-10-03T02:04:54.209Z,1013.22
2018-10-03T02:05:54.228Z,1013.22
2018-10-03T02:06:54.264Z,1013.25
2018-10-03T02:07:54.246Z,1013.27
2018-10-03T02:08:54.259Z,1013.28
2018-10-03T02:09:54.272Z,1013.24
2018-10-03T02:10:54.288Z,1013.22
2018-10-03T02:11:54.300Z,1013.23
2018-10-03T02:12:54.311Z,1013.25
2018-10-03T02:13:54.325Z,1013.26
2018-10-03T02:14:54.347Z,1013.25
2018-10-03T02:15:54.353Z,1013.29
2018-10-03T02:16:54.372Z,1013.26
2018-10-03T02:17:54.388Z,1013.27
2018-10-03T02:18:54.399Z,1013.27
2018-10-03T02:19:54.406Z,1013.30
2018-10-03T02:20:54.419Z,1013.29
2018-10-03T02:21:54.434Z,1013.25
2018-10-03T02:22:54.449Z,1013.26
2018-10-03T02:23:54.566Z,1013.26
2018-10-03T02:25:55.168Z,1013.28
2018-10-03T02:26:54.506Z,1013.28
2018-10-03T02:27:54.516Z,1013.35
2018-10-03T02:28:54.528Z,1013.36
2018-10-03T02:29:54.544Z,1013.34
2018-10-03T02:30:54.557Z,1013.34
2018-10-03T02:31:54.647Z,1013.32
2018-10-03T02:32:55.138Z,1013.33
2018-10-03T02:33:55.181Z,1013.36
2018-10-03T02:34:54.638Z,1013.39
2018-10-03T02:35:54.634Z,1013.38
2018-10-03T02:36:54.633Z,1013.39
2018-10-03T02:37:54.647Z,1013.38
2018-10-03T02:38:54.664Z,1013.42
2018-10-03T02:39:54.674Z,1013.43
2018-10-03T02:40:54.945Z,1013.39
2018-10-03T02:41:54.703Z,1013.40
2018-10-03T02:42:54.715Z,1013.40
2018-10-03T02:43:54.732Z,1013.35
2018-10-03T02:44:54.739Z,1013.37
2018-10-03T02:45:54.756Z,1013.41
2018-10-03T02:46:54.766Z,1013.44
2018-10-03T02:47:54.805Z,1013.41
2018-10-03T02:48:54.803Z,1013.41
2018-10-03T02:49:54.817Z,1013.42
2018-10-03T02:50:54.820Z,1013.39
2018-10-03T02:51:54.838Z,1013.43
2018-10-03T02:52:54.846Z,1013.42
2018-10-03T02:53:54.860Z,1013.43
2018-10-03T02:54:54.877Z,1013.45
2018-10-03T02:55:54.892Z,1013.42
2018-10-03T02:58:55.112Z,1013.45
2018-10-03T02:59:55.009Z,1013.43
2018-10-03T03:00:54.970Z,1013.45
2018-10-03T03:01:55.032Z,1013.50
2018-10-03T03:02:55.034Z,1013.47
2018-10-03T03:03:54.995Z,1013.48
2018-10-03T03:04:55.009Z,1013.46
2018-10-03T03:05:55.021Z,1013.50
2018-10-03T03:06:55.042Z,1013.50
2018-10-03T03:07:55.051Z,1013.49
2018-10-03T03:08:55.112Z,1013.50
2018-10-03T03:09:55.074Z,1013.53
2018-10-03T03:10:55.091Z,1013.55
2018-10-03T03:11:55.105Z,1013.59
2018-10-03T03:12:55.128Z,1013.59
2018-10-03T03:13:55.126Z,1013.57
2018-10-03T03:14:55.139Z,1013.61
2018-10-03T03:15:55.221Z,1013.61
2018-10-03T03:16:55.318Z,1013.62
2018-10-03T03:17:55.174Z,1013.62
2018-10-03T03:18:55.395Z,1013.61
2018-10-03T03:19:55.742Z,1013.59
2018-10-03T03:20:55.217Z,1013.61
2018-10-03T03:21:55.229Z,1013.62
2018-10-03T03:22:55.245Z,1013.63
2018-10-03T03:23:55.256Z,1013.66
2018-10-03T03:24:55.266Z,1013.68
2018-10-03T03:25:55.280Z,1013.70
2018-10-03T03:26:55.294Z,1013.63
2018-10-03T03:27:55.314Z,1013.60
2018-10-03T03:28:55.321Z,1013.59
2018-10-03T03:29:55.334Z,1013.62
2018-10-03T03:30:55.350Z,1013.62
2018-10-03T03:32:55.379Z,1013.67
2018-10-03T03:33:55.387Z,1013.68
2018-10-03T03:34:55.405Z,1013.63
2018-10-03T03:35:55.416Z,1013.66
2018-10-03T03:36:55.431Z,1013.68
2018-10-03T03:37:55.446Z,1013.66
2018-10-03T03:38:55.458Z,1013.66
2018-10-03T03:39:55.469Z,1013.72
2018-10-03T03:40:55.492Z,1013.68
2018-10-03T03:41:55.497Z,1013.71
2018-10-03T03:42:55.511Z,1013.70
2018-10-03T03:43:55.529Z,1013.71
2018-10-03T03:44:55.537Z,1013.67
2018-10-03T03:45:55.548Z,1013.64
2018-10-03T03:46:55.570Z,1013.69
2018-10-03T03:47:55.575Z,1013.69
2018-10-03T03:48:55.589Z,1013.74
2018-10-03T03:49:55.617Z,1013.69
2018-10-03T03:50:55.615Z,1013.70
2018-10-03T03:51:55.629Z,1013.68
2018-10-03T03:52:55.644Z,1013.70
2018-10-03T03:53:55.655Z,1013.63
2018-10-03T03:54:55.669Z,1013.68
2018-10-03T03:55:55.691Z,1013.69
2018-10-03T03:56:55.733Z,1013.70
2018-10-03T03:57:55.709Z,1013.71
2018-10-03T03:58:55.724Z,1013.67
2018-10-03T03:59:55.741Z,1013.74
2018-10-03T04:00:55.758Z,1013.77
2018-10-03T04:01:55.763Z,1013.77
2018-10-03T04:02:55.777Z,1013.82
2018-10-03T04:03:55.890Z,1013.83
2018-10-03T04:04:56.005Z,1013.89
2018-10-03T04:06:56.294Z,1013.88
2018-10-03T04:07:55.859Z,1013.90
2018-10-03T04:08:55.858Z,1013.90
2018-10-03T04:09:55.869Z,1013.89
2018-10-03T04:10:55.888Z,1013.95
2018-10-03T04:11:55.896Z,1013.92
2018-10-03T04:12:55.913Z,1013.94
2018-10-03T04:13:55.922Z,1013.98
2018-10-03T04:14:55.938Z,1014.00
2018-10-03T04:15:55.953Z,1014.02
2018-10-03T04:16:55.963Z,1014.02
2018-10-03T04:17:55.979Z,1014.07
2018-10-03T04:18:55.991Z,1014.09
2018-10-03T04:19:56.003Z,1014.07
2018-10-03T04:20:56.027Z,1014.08
2018-10-03T04:21:56.033Z,1014.11
2018-10-03T04:22:56.045Z,1014.10
2018-10-03T04:23:56.068Z,1014.11
2018-10-03T04:24:56.074Z,1014.16
2018-10-03T04:25:56.095Z,1014.17
2018-10-03T04:26:56.098Z,1014.19
2018-10-03T04:27:56.116Z,1014.22
2018-10-03T04:28:56.124Z,1014.16
2018-10-03T04:29:56.137Z,1014.18
2018-10-03T04:30:56.150Z,1014.17
2018-10-03T04:31:56.164Z,1014.18
2018-10-03T04:32:56.175Z,1014.18
2018-10-03T04:33:56.190Z,1014.20
2018-10-03T04:34:56.204Z,1014.17
2018-10-03T04:35:56.227Z,1014.17
2018-10-03T04:36:56.229Z,1014.21
2018-10-03T04:37:56.250Z,1014.21
2018-10-03T04:40:56.314Z,1014.28
2018-10-03T04:41:56.729Z,1014.32
2018-10-03T04:42:56.314Z,1014.28
2018-10-03T04:43:56.327Z,1014.27
2018-10-03T04:44:56.340Z,1014.26
2018-10-03T04:45:56.350Z,1014.31
2018-10-03T04:46:56.362Z,1014.32
2018-10-03T04:47:56.381Z,1014.30
2018-10-03T04:48:56.406Z,1014.32
2018-10-03T04:49:56.401Z,1014.28
2018-10-03T04:50:56.417Z,1014.34
2018-10-03T04:51:56.429Z,1014.40
2018-10-03T04:52:56.443Z,1014.40
2018-10-03T04:53:56.455Z,1014.42
2018-10-03T04:54:56.469Z,1014.39
2018-10-03T04:55:56.483Z,1014.44
2018-10-03T04:56:56.494Z,1014.45
2018-10-03T04:57:56.510Z,1014.39
2018-10-03T04:58:56.523Z,1014.38
2018-10-03T04:59:56.536Z,1014.37
2018-10-03T05:00:56.561Z,1014.35
2018-10-03T05:01:56.565Z,1014.34
2018-10-03T05:02:56.575Z,1014.37
2018-10-03T05:03:56.592Z,1014.35
2018-10-03T05:04:56.601Z,1014.34
2018-10-03T05:05:56.614Z,1014.37
2018-10-03T05:06:56.639Z,1014.39
2018-10-03T05:07:56.640Z,1014.40
2018-10-03T05:08:56.656Z,1014.39
2018-10-03T05:09:56.669Z,1014.44
2018-10-03T05:10:56.681Z,1014.46
2018-10-03T05:12:56.760Z,1014.52
2018-10-03T05:13:56.721Z,1014.55
2018-10-03T05:14:56.748Z,1014.54
2018-10-03T05:15:56.748Z,1014.55
2018-10-03T05:16:56.759Z,1014.59
2018-10-03T05:17:56.774Z,1014.60
2018-10-03T05:18:56.789Z,1014.60
2018-10-03T05:19:56.801Z,1014.59
2018-10-03T05:20:56.812Z,1014.59
2018-10-03T05:21:56.830Z,1014.60
2018-10-03T05:22:56.841Z,1014.63
2018-10-03T05:23:56.856Z,1014.61
2018-10-03T05:24:56.864Z,1014.65
2018-10-03T05:25:56.884Z,1014.66
2018-10-03T05:26:56.892Z,1014.66
2018-10-03T05:27:56.987Z,1014.71
2018-10-03T05:28:56.919Z,1014.74
2018-10-03T05:29:56.935Z,1014.73
2018-10-03T05:30:56.945Z,1014.79
2018-10-03T05:31:56.963Z,1014.77
2018-10-03T05:32:56.976Z,1014.75
2018-10-03T05:33:56.991Z,1014.75
2018-10-03T05:34:57.003Z,1014.74
2018-10-03T05:35:57.014Z,1014.77
2018-10-03T05:36:57.027Z,1014.78
2018-10-03T05:37:57.039Z,1014.83
2018-10-03T05:38:57.061Z,1014.76
2018-10-03T05:39:57.067Z,1014.79
2018-10-03T05:40:57.088Z,1014.78
2018-10-03T05:43:57.187Z,1014.88
2018-10-03T05:44:57.135Z,1014.88
2018-10-03T05:45:57.151Z,1014.92
2018-10-03T05:46:57.161Z,1014.93
2018-10-03T05:47:57.178Z,1014.97
2018-10-03T05:48:57.189Z,1014.95
2018-10-03T05:49:57.199Z,1014.95
2018-10-03T05:50:57.210Z,1014.98
2018-10-03T05:51:57.225Z,1014.95
2018-10-03T05:52:57.237Z,1014.94
2018-10-03T05:53:57.250Z,1014.94
2018-10-03T05:54:57.264Z,1014.99
2018-10-03T05:55:57.278Z,1015.03
2018-10-03T05:56:57.291Z,1015.04
2018-10-03T05:57:57.306Z,1015.07
2018-10-03T05:58:57.322Z,1015.11
2018-10-03T05:59:57.330Z,1015.11
2018-10-03T06:00:57.344Z,1015.13
2018-10-03T06:01:57.359Z,1015.13
2018-10-03T06:02:57.446Z,1015.15
2018-10-03T06:03:57.384Z,1015.15
2018-10-03T06:04:57.397Z,1015.19
2018-10-03T06:05:57.410Z,1015.20
2018-10-03T06:06:57.423Z,1015.25
2018-10-03T06:07:57.436Z,1015.26
2018-10-03T06:08:57.450Z,1015.31
2018-10-03T06:09:57.466Z,1015.31
2018-10-03T06:10:57.479Z,1015.34
2018-10-03T06:11:57.518Z,1015.35
2018-10-03T06:12:57.501Z,1015.36
2018-10-03T06:13:57.516Z,1015.36
2018-10-03T06:15:57.556Z,1015.44
2018-10-03T06:16:57.578Z,1015.47
2018-10-03T06:17:57.568Z,1015.49
2018-10-03T06:18:57.585Z,1015.51
2018-10-03T06:19:57.604Z,1015.53
2018-10-03T06:20:57.615Z,1015.51
2018-10-03T06:21:57.626Z,1015.58
2018-10-03T06:22:57.653Z,1015.61
2018-10-03T06:23:57.651Z,1015.65
2018-10-03T06:24:57.674Z,1015.63
2018-10-03T06:25:57.676Z,1015.68
2018-10-03T06:26:57.688Z,1015.74
2018-10-03T06:27:57.814Z,1015.75
2018-10-03T06:28:57.715Z,1015.79
2018-10-03T06:29:57.732Z,1015.83
2018-10-03T06:30:57.761Z,1015.85
2018-10-03T06:31:57.766Z,1015.89
2018-10-03T06:32:57.771Z,1015.90
2018-10-03T06:33:57.783Z,1015.94
2018-10-03T06:34:57.798Z,1015.98
2018-10-03T06:35:57.810Z,1015.98
2018-10-03T06:36:57.824Z,1016.01
2018-10-03T06:37:57.834Z,1016.01
2018-10-03T06:38:57.852Z,1016.05
2018-10-03T06:39:57.865Z,1016.07
2018-10-03T06:40:57.882Z,1016.10
2018-10-03T06:41:57.967Z,1016.11
2018-10-03T06:42:57.904Z,1016.12
2018-10-03T06:43:57.918Z,1016.09
2018-10-03T06:44:57.928Z,1016.10
2018-10-03T06:45:57.948Z,1016.16
2018-10-03T06:46:57.984Z,1016.24
2018-10-03T06:47:57.975Z,1016.25
2018-10-03T06:48:57.985Z,1016.25
2018-10-03T06:49:58.046Z,1016.28
2018-10-03T06:50:58.024Z,1016.35
2018-10-03T06:51:58.174Z,1016.29
2018-10-03T06:52:58.037Z,1016.32
2018-10-03T06:53:58.051Z,1016.41
2018-10-03T06:54:58.063Z,1016.43
2018-10-03T06:55:58.078Z,1016.40
2018-10-03T06:56:58.146Z,1016.43
2018-10-03T06:57:58.116Z,1016.39
2018-10-03T06:58:58.118Z,1016.43
2018-10-03T06:59:58.132Z,1016.45
2018-10-03T07:00:58.146Z,1016.47
2018-10-03T07:01:58.158Z,1016.48
2018-10-03T07:02:58.169Z,1016.47
2018-10-03T07:03:58.184Z,1016.51
2018-10-03T07:04:58.199Z,1016.57
2018-10-03T07:05:58.211Z,1016.59
2018-10-03T07:06:58.227Z,1016.65
2018-10-03T07:07:58.240Z,1016.68
2018-10-03T07:08:58.263Z,1016.67
2018-10-03T07:09:58.278Z,1016.70
2018-10-03T07:10:58.279Z,1016.73
2018-10-03T07:11:58.319Z,1016.72
2018-10-03T07:12:58.328Z,1016.73
2018-10-03T07:13:58.325Z,1016.74
2018-10-03T07:14:58.335Z,1016.78
2018-10-03T07:15:58.350Z,1016.84
2018-10-03T07:16:58.360Z,1016.88
2018-10-03T07:17:58.374Z,1016.84
2018-10-03T07:18:58.389Z,1016.90
2018-10-03T07:19:58.403Z,1016.85
2018-10-03T07:20:58.414Z,1016.91
2018-10-03T07:21:58.532Z,1016.87
2018-10-03T07:22:58.492Z,1016.87
2018-10-03T07:23:58.829Z,1016.90
2018-10-03T07:24:58.468Z,1016.92
2018-10-03T07:25:58.549Z,1016.94
2018-10-03T07:26:58.501Z,1016.94
2018-10-03T07:27:58.512Z,1016.97
2018-10-03T07:28:58.523Z,1016.99
2018-10-03T07:29:58.536Z,1016.98
2018-10-03T07:30:58.554Z,1016.97
2018-10-03T07:31:58.577Z,1017.04
2018-10-03T07:32:58.577Z,1017.11
2018-10-03T07:33:58.597Z,1017.11
2018-10-03T07:34:58.608Z,1017.08
2018-10-03T07:35:58.620Z,1017.07
2018-10-03T07:36:58.633Z,1017.09
2018-10-03T07:38:58.662Z,1017.19
2018-10-03T07:39:59.132Z,1017.19
2018-10-03T07:40:58.691Z,1017.20
2018-10-03T07:41:58.704Z,1017.20
2018-10-03T07:42:58.716Z,1017.25
2018-10-03T07:43:58.771Z,1017.28
2018-10-03T07:44:58.744Z,1017.27
2018-10-03T07:45:58.763Z,1017.27
2018-10-03T07:46:58.777Z,1017.33
2018-10-03T07:47:58.832Z,1017.34
2018-10-03T07:48:58.830Z,1017.32
2018-10-03T07:49:58.817Z,1017.38
2018-10-03T07:50:58.828Z,1017.29
2018-10-03T07:51:58.841Z,1017.34
2018-10-03T07:52:58.857Z,1017.37
2018-10-03T07:53:58.877Z,1017.31
2018-10-03T07:54:58.981Z,1017.35
2018-10-03T07:55:59.141Z,1017.30
2018-10-03T07:56:58.911Z,1017.33
2018-10-03T07:57:58.938Z,1017.35
2018-10-03T07:58:59.022Z,1017.38
2018-10-03T07:59:58.972Z,1017.36
2018-10-03T08:00:59.063Z,1017.38
2018-10-03T08:01:58.977Z,1017.41
2018-10-03T08:02:58.992Z,1017.45
2018-10-03T08:03:59.019Z,1017.40
2018-10-03T08:04:59.036Z,1017.46
2018-10-03T08:05:59.037Z,1017.49
2018-10-03T08:06:59.053Z,1017.50
2018-10-03T08:07:59.078Z,1017.56
2018-10-03T08:08:59.104Z,1017.52
2018-10-03T08:09:59.122Z,1017.59
2018-10-03T08:10:59.108Z,1017.53
2018-10-03T08:11:59.117Z,1017.54
2018-10-03T08:12:59.131Z,1017.58
2018-10-03T08:13:59.148Z,1017.68
2018-10-03T08:14:59.162Z,1017.59
2018-10-03T08:15:59.189Z,1017.61
2018-10-03T08:16:59.187Z,1017.63
2018-10-03T08:17:59.201Z,1017.71
2018-10-03T08:18:59.215Z,1017.63
2018-10-03T08:19:59.250Z,1017.66
2018-10-03T08:20:59.268Z,1017.67
2018-10-03T08:21:59.256Z,1017.64
2018-10-03T08:22:59.332Z,1017.69
2018-10-03T08:23:59.285Z,1017.76
2018-10-03T08:24:59.303Z,1017.74
2018-10-03T08:25:59.364Z,1017.71
2018-10-03T08:26:59.329Z,1017.76
2018-10-03T08:27:59.409Z,1017.78
2018-10-03T08:29:59.425Z,1017.79
2018-10-03T08:30:59.389Z,1017.87
2018-10-03T08:31:59.407Z,1017.86
2018-10-03T08:32:59.480Z,1017.84
2018-10-03T08:33:59.437Z,1017.87
2018-10-03T08:34:59.453Z,1017.90
2018-10-03T08:35:59.458Z,1017.84
2018-10-03T08:36:59.471Z,1017.91
2018-10-03T08:37:59.482Z,1017.85
2018-10-03T08:38:59.496Z,1017.87
2018-10-03T08:39:59.508Z,1017.90
2018-10-03T08:40:59.524Z,1018.04
2018-10-03T08:41:59.536Z,1017.99
2018-10-03T08:42:59.552Z,1018.00
2018-10-03T08:43:59.571Z,1018.01
2018-10-03T08:44:59.581Z,1018.01
2018-10-03T08:45:59.598Z,1018.09
2018-10-03T08:46:59.610Z,1017.99
2018-10-03T08:47:59.618Z,1018.09
2018-10-03T08:48:59.636Z,1018.09
2018-10-03T08:49:59.648Z,1018.09
2018-10-03T08:50:59.662Z,1018.13
2018-10-03T08:51:59.699Z,1018.00
2018-10-03T08:52:59.698Z,1018.08
2018-10-03T08:53:59.703Z,1018.08
2018-10-03T08:54:59.719Z,1018.11
2018-10-03T08:55:59.729Z,1018.20
2018-10-03T08:56:59.847Z,1018.21
2018-10-03T08:57:59.912Z,1018.30
2018-10-03T08:59:00.128Z,1018.16
2018-10-03T08:59:59.892Z,1018.24
2018-10-03T09:01:00.297Z,1018.16
2018-10-03T09:01:59.828Z,1018.19
2018-10-03T09:02:59.827Z,1018.11
2018-10-03T09:03:59.843Z,1018.12
2018-10-03T09:04:59.865Z,1018.20
2018-10-03T09:05:59.871Z,1018.19
2018-10-03T09:06:59.885Z,1018.18
2018-10-03T09:07:59.902Z,1018.26
2018-10-03T09:08:59.916Z,1018.18
2018-10-03T09:09:59.948Z,1018.31
2018-10-03T09:10:59.938Z,1018.32
2018-10-03T09:11:59.953Z,1018.38
2018-10-03T09:12:59.972Z,1018.34
2018-10-03T09:13:59.982Z,1018.35
2018-10-03T09:14:59.997Z,1018.40
2018-10-03T09:16:00.017Z,1018.39
2018-10-03T09:17:00.024Z,1018.45
2018-10-03T09:18:00.070Z,1018.45
2018-10-03T09:19:00.054Z,1018.54
2018-10-03T09:20:00.069Z,1018.53
2018-10-03T09:21:00.084Z,1018.57
2018-10-03T09:22:00.093Z,1018.56
2018-10-03T09:23:00.108Z,1018.63
2018-10-03T09:24:00.126Z,1018.60
2018-10-03T09:25:00.137Z,1018.65
2018-10-03T09:26:00.159Z,1018.62
2018-10-03T09:27:00.181Z,1018.67
2018-10-03T09:28:00.179Z,1018.64
2018-10-03T09:29:00.214Z,1018.68
2018-10-03T09:30:00.226Z,1018.62
2018-10-03T09:31:00.346Z,1018.64
2018-10-03T09:34:00.299Z,1018.69
2018-10-03T09:35:00.283Z,1018.67
2018-10-03T09:36:00.290Z,1018.66
2018-10-03T09:37:00.309Z,1018.71
2018-10-03T09:38:00.321Z,1018.75
2018-10-03T09:39:00.372Z,1018.77
2018-10-03T09:40:00.350Z,1018.73
2018-10-03T09:41:00.372Z,1018.79
2018-10-03T09:42:00.389Z,1018.80
2018-10-03T09:43:00.396Z,1018.78
2018-10-03T09:44:00.411Z,1018.74
2018-10-03T09:45:00.421Z,1018.83
2018-10-03T09:46:00.435Z,1018.84
2018-10-03T09:47:00.451Z,1018.85
2018-10-03T09:48:00.468Z,1018.84
2018-10-03T09:49:00.484Z,1018.86
2018-10-03T09:50:00.488Z,1018.84
2018-10-03T09:51:00.507Z,1018.89
2018-10-03T09:52:00.532Z,1018.89
2018-10-03T09:53:00.548Z,1018.90
2018-10-03T09:54:00.552Z,1018.89
2018-10-03T09:55:00.568Z,1018.91
2018-10-03T09:56:00.579Z,1018.91
2018-10-03T09:57:00.595Z,1019.05
2018-10-03T09:58:00.605Z,1018.91
2018-10-03T09:59:00.619Z,1018.92
2018-10-03T10:00:00.641Z,1018.94
2018-10-03T10:01:00.647Z,1018.92
2018-10-03T10:02:00.660Z,1018.90
2018-10-03T10:03:00.717Z,1018.88
2018-10-03T10:04:00.941Z,1018.87
2018-10-03T10:06:00.770Z,1018.94
2018-10-03T10:07:00.731Z,1018.97
2018-10-03T10:08:00.875Z,1018.91
2018-10-03T10:09:00.760Z,1019.02
2018-10-03T10:10:00.779Z,1019.07
2018-10-03T10:11:00.841Z,1019.04
2018-10-03T10:12:00.807Z,1019.00
2018-10-03T10:13:00.817Z,1018.98
2018-10-03T10:14:00.835Z,1018.94
2018-10-03T10:15:00.846Z,1018.95
2018-10-03T10:16:00.865Z,1018.96
2018-10-03T10:17:00.891Z,1019.04
2018-10-03T10:18:00.893Z,1018.98
2018-10-03T10:19:00.905Z,1019.07
2018-10-03T10:20:00.922Z,1019.08
2018-10-03T10:21:00.930Z,1019.09
2018-10-03T10:22:00.945Z,1019.07
2018-10-03T10:23:00.962Z,1019.05
2018-10-03T10:24:00.978Z,1019.08
2018-10-03T10:25:00.987Z,1019.18
2018-10-03T10:26:01.004Z,1019.15
2018-10-03T10:27:01.016Z,1019.12
2018-10-03T10:28:01.031Z,1019.16
2018-10-03T10:29:01.045Z,1019.18
2018-10-03T10:30:01.151Z,1019.21
2018-10-03T10:31:01.075Z,1019.21
2018-10-03T10:32:01.148Z,1019.24
2018-10-03T10:33:01.260Z,1019.18
2018-10-03T10:34:01.130Z,1019.25
2018-10-03T10:35:01.136Z,1019.19
2018-10-03T10:36:01.172Z,1019.14
2018-10-03T10:37:01.166Z,1019.09
2018-10-03T10:39:01.370Z,1019.07
2018-10-03T10:40:01.265Z,1019.25
2018-10-03T10:41:01.253Z,1019.19
2018-10-03T10:42:01.231Z,1019.20
2018-10-03T10:43:01.251Z,1019.23
2018-10-03T10:44:01.266Z,1019.14
2018-10-03T10:45:01.281Z,1019.19
2018-10-03T10:46:01.302Z,1019.18
2018-10-03T10:47:01.306Z,1019.21
2018-10-03T10:48:01.320Z,1019.20
2018-10-03T10:49:01.336Z,1019.30
2018-10-03T10:50:01.351Z,1019.24
2018-10-03T10:51:01.362Z,1019.20
2018-10-03T10:52:01.390Z,1019.28
2018-10-03T10:53:01.418Z,1019.27
2018-10-03T10:54:01.418Z,1019.26
2018-10-03T10:55:01.421Z,1019.20
2018-10-03T10:56:01.438Z,1019.20
2018-10-03T10:57:01.465Z,1019.23
2018-10-03T10:58:01.463Z,1019.28
2018-10-03T10:59:01.481Z,1019.26
2018-10-03T11:00:01.655Z,1019.25
2018-10-03T11:01:01.510Z,1019.27
2018-10-03T11:02:01.527Z,1019.28
2018-10-03T11:03:01.545Z,1019.39
2018-10-03T11:04:01.554Z,1019.35
2018-10-03T11:05:01.578Z,1019.35
2018-10-03T11:06:01.616Z,1019.38
2018-10-03T11:07:01.597Z,1019.41
2018-10-03T11:08:01.619Z,1019.39
2018-10-03T11:09:01.629Z,1019.42
2018-10-03T11:10:01.639Z,1019.39
2018-10-03T11:13:02.197Z,1019.38
2018-10-03T11:14:01.721Z,1019.40
2018-10-03T11:15:01.715Z,1019.41
2018-10-03T11:16:01.733Z,1019.42
2018-10-03T11:17:01.845Z,1019.42
2018-10-03T11:18:01.763Z,1019.39
2018-10-03T11:19:01.773Z,1019.36
2018-10-03T11:20:01.844Z,1019.46
2018-10-03T11:21:01.814Z,1019.45
2018-10-03T11:22:01.819Z,1019.52
2018-10-03T11:23:01.845Z,1019.56
2018-10-03T11:24:01.877Z,1019.57
2018-10-03T11:25:01.979Z,1019.55
2018-10-03T11:26:01.892Z,1019.62
2018-10-03T11:27:01.910Z,1019.57
2018-10-03T11:28:01.911Z,1019.59
2018-10-03T11:29:01.919Z,1019.63
2018-10-03T11:30:01.934Z,1019.57
2018-10-03T11:31:01.967Z,1019.57
2018-10-03T11:32:02.035Z,1019.69
2018-10-03T11:33:01.996Z,1019.60
2018-10-03T11:34:02.048Z,1019.62
2018-10-03T11:35:02.004Z,1019.67
2018-10-03T11:36:02.019Z,1019.62
2018-10-03T11:37:02.056Z,1019.67
2018-10-03T11:38:02.090Z,1019.57
2018-10-03T11:40:02.076Z,1019.62
2018-10-03T11:41:02.110Z,1019.58
2018-10-03T11:42:02.123Z,1019.53
2018-10-03T11:43:02.374Z,1019.50
2018-10-03T11:45:02.152Z,1019.47
2018-10-03T11:46:02.162Z,1019.53
2018-10-03T11:47:02.174Z,1019.48
2018-10-03T11:48:02.194Z,1019.51
2018-10-03T11:49:02.205Z,1019.47
2018-10-03T11:50:02.218Z,1019.49
2018-10-03T11:51:02.234Z,1019.44
2018-10-03T11:52:02.250Z,1019.40
2018-10-03T11:53:02.266Z,1019.43
2018-10-03T11:54:02.282Z,1019.49
2018-10-03T11:55:02.300Z,1019.44
2018-10-03T11:56:02.307Z,1019.37
2018-10-03T11:57:02.376Z,1019.39
2018-10-03T11:58:02.338Z,1019.43
2018-10-03T11:59:02.353Z,1019.40
2018-10-03T12:00:02.368Z,1019.40
2018-10-03T12:01:02.388Z,1019.44
2018-10-03T12:02:02.420Z,1019.48
2018-10-03T12:03:02.556Z,1019.46
2018-10-03T12:04:02.426Z,1019.51
2018-10-03T12:05:02.442Z,1019.47
2018-10-03T12:06:02.457Z,1019.53
2018-10-03T12:07:02.486Z,1019.54
2018-10-03T12:08:02.498Z,1019.53
2018-10-03T12:09:02.571Z,1019.56
2018-10-03T12:10:02.515Z,1019.53
2018-10-03T12:11:02.530Z,1019.52
2018-10-03T12:12:02.553Z,1019.44
2018-10-03T12:13:02.594Z,1019.48
2018-10-03T12:14:02.729Z,1019.53
2018-10-03T12:16:02.618Z,1019.45
2018-10-03T12:17:02.643Z,1019.47
2018-10-03T12:18:02.635Z,1019.56
2018-10-03T12:19:02.650Z,1019.51
2018-10-03T12:20:02.942Z,1019.50
2018-10-03T12:21:02.681Z,1019.53
2018-10-03T12:22:02.694Z,1019.53
2018-10-03T12:23:02.709Z,1019.54
2018-10-03T12:24:02.735Z,1019.53
2018-10-03T12:25:02.788Z,1019.55
2018-10-03T12:26:02.750Z,1019.57
2018-10-03T12:27:02.765Z,1019.52
2018-10-03T12:28:02.785Z,1019.61
2018-10-03T12:29:02.808Z,1019.57
2018-10-03T12:30:02.816Z,1019.61
2018-10-03T12:31:02.846Z,1019.54
2018-10-03T12:32:02.840Z,1019.59
2018-10-03T12:33:02.889Z,1019.56
2018-10-03T12:34:02.872Z,1019.50